sensor_id;sensor_type;location;lat;lon;timestamp;temperature;humidity
20325;DHT22;10320;49.482;11.256;2023-05-07T04:59:48;23.40;85.40
20325;DHT22;10320;49.482;11.256;2023-05-07T05:02:14;12.30;99.90
20325;DHT22;10320;49.482;11.256;2023-05-07T05:04:40;12.20;99.90
20325;DHT22;10320;49.482;11.256;2023-05-07T05:07:05;12.40;99.90
20325;DHT22;10320;49.482;11.256;2023-05-07T05:09:31;12.50;99.90
20325;DHT22;10320;49.482;11.256;2023-05-07T05:11:57;12.60;99.90
20325;DHT22;10320;49.482;11.256;2023-05-07T05:14:22;12.60;99.90
20325;DHT22;10320;49.482;11.256;2023-05-07T05:16:48;12.60;99.90
20325;DHT22;10320;49.482;11.256;2023-05-07T05:19:14;12.60;99.90
20325;DHT22;10320;49.482;11.256;2023-05-07T05:21:39;12.60;99.90
20325;DHT22;10320;49.482;11.256;2023-05-07T05:24:05;12.60;99.90
20325;DHT22;10320;49.482;11.256;2023-05-07T05:26:31;12.60;99.90
20325;DHT22;10320;49.482;11.256;2023-05-07T05:28:56;12.70;99.90
20325;DHT22;10320;49.482;11.256;2023-05-07T05:31:22;12.80;99.90
20325;DHT22;10320;49.482;11.256;2023-05-07T05:33:48;12.90;99.90
20325;DHT22;10320;49.482;11.256;2023-05-07T05:36:13;13.00;99.90
20325;DHT22;10320;49.482;11.256;2023-05-07T05:38:39;13.20;99.90
20325;DHT22;10320;49.482;11.256;2023-05-07T05:41:05;13.30;99.90
20325;DHT22;10320;49.482;11.256;2023-05-07T05:43:31;13.60;99.90
20325;DHT22;10320;49.482;11.256;2023-05-07T05:45:57;13.80;99.90
20325;DHT22;10320;49.482;11.256;2023-05-07T05:48:23;14.00;99.90
20325;DHT22;10320;49.482;11.256;2023-05-07T05:50:49;14.10;99.90
20325;DHT22;10320;49.482;11.256;2023-05-07T05:53:15;14.30;99.90
20325;DHT22;10320;49.482;11.256;2023-05-07T05:55:41;14.40;99.90
20325;DHT22;10320;49.482;11.256;2023-05-07T05:58:07;14.40;99.90
20325;DHT22;10320;49.482;11.256;2023-05-07T06:00:34;14.50;99.90
20325;DHT22;10320;49.482;11.256;2023-05-07T06:02:59;14.40;99.90
20325;DHT22;10320;49.482;11.256;2023-05-07T06:05:25;14.40;99.90
20325;DHT22;10320;49.482;11.256;2023-05-07T06:07:51;14.50;99.90
20325;DHT22;10320;49.482;11.256;2023-05-07T06:10:16;14.60;99.90
20325;DHT22;10320;49.482;11.256;2023-05-07T06:12:42;14.80;99.90
20325;DHT22;10320;49.482;11.256;2023-05-07T06:15:08;14.80;99.90
20325;DHT22;10320;49.482;11.256;2023-05-07T06:17:34;14.90;99.90
20325;DHT22;10320;49.482;11.256;2023-05-07T06:19:59;14.90;99.90
20325;DHT22;10320;49.482;11.256;2023-05-07T06:22:25;14.80;99.90
20325;DHT22;10320;49.482;11.256;2023-05-07T06:24:51;14.70;99.90
20325;DHT22;10320;49.482;11.256;2023-05-07T06:27:17;14.80;99.90
20325;DHT22;10320;49.482;11.256;2023-05-07T06:29:42;14.70;99.90
20325;DHT22;10320;49.482;11.256;2023-05-07T06:32:12;14.80;99.90
20325;DHT22;10320;49.482;11.256;2023-05-07T06:34:39;14.80;99.90
20325;DHT22;10320;49.482;11.256;2023-05-07T06:37:05;14.90;99.90
20325;DHT22;10320;49.482;11.256;2023-05-07T06:39:31;14.90;99.90
20325;DHT22;10320;49.482;11.256;2023-05-07T06:41:57;15.00;99.90
20325;DHT22;10320;49.482;11.256;2023-05-07T06:44:23;15.10;99.90
20325;DHT22;10320;49.482;11.256;2023-05-07T06:46:48;15.30;99.90
20325;DHT22;10320;49.482;11.256;2023-05-07T06:49:14;15.40;99.90
20325;DHT22;10320;49.482;11.256;2023-05-07T06:51:40;15.40;99.90
20325;DHT22;10320;49.482;11.256;2023-05-07T06:54:06;15.30;99.90
20325;DHT22;10320;49.482;11.256;2023-05-07T06:56:35;15.50;99.90
20325;DHT22;10320;49.482;11.256;2023-05-07T06:59:02;15.70;99.90
20325;DHT22;10320;49.482;11.256;2023-05-07T07:01:28;15.80;99.90
20325;DHT22;10320;49.482;11.256;2023-05-07T07:03:54;15.90;99.90
20325;DHT22;10320;49.482;11.256;2023-05-07T07:06:20;15.90;99.90
20325;DHT22;10320;49.482;11.256;2023-05-07T07:08:45;15.90;99.90
20325;DHT22;10320;49.482;11.256;2023-05-07T07:11:11;16.00;99.90
20325;DHT22;10320;49.482;11.256;2023-05-07T07:13:37;16.20;99.90
20325;DHT22;10320;49.482;11.256;2023-05-07T07:16:03;16.30;99.90
20325;DHT22;10320;49.482;11.256;2023-05-07T07:18:29;16.50;99.90
20325;DHT22;10320;49.482;11.256;2023-05-07T07:20:54;16.60;99.90
20325;DHT22;10320;49.482;11.256;2023-05-07T07:23:20;16.50;99.90
20325;DHT22;10320;49.482;11.256;2023-05-07T07:25:49;16.60;99.90
20325;DHT22;10320;49.482;11.256;2023-05-07T07:28:14;16.80;99.90
20325;DHT22;10320;49.482;11.256;2023-05-07T07:30:40;16.90;99.90
20325;DHT22;10320;49.482;11.256;2023-05-07T07:33:06;17.10;99.90
20325;DHT22;10320;49.482;11.256;2023-05-07T07:35:32;17.20;99.90
20325;DHT22;10320;49.482;11.256;2023-05-07T07:38:01;17.30;99.90
20325;DHT22;10320;49.482;11.256;2023-05-07T07:40:27;17.40;99.90
20325;DHT22;10320;49.482;11.256;2023-05-07T07:42:53;17.70;99.90
20325;DHT22;10320;49.482;11.256;2023-05-07T07:45:20;18.10;99.90
20325;DHT22;10320;49.482;11.256;2023-05-07T07:47:45;18.50;99.90
20325;DHT22;10320;49.482;11.256;2023-05-07T07:50:11;18.60;99.90
20325;DHT22;10320;49.482;11.256;2023-05-07T07:52:37;18.60;99.90
20325;DHT22;10320;49.482;11.256;2023-05-07T07:55:03;18.50;99.90
20325;DHT22;10320;49.482;11.256;2023-05-07T07:57:30;18.50;99.90
20325;DHT22;10320;49.482;11.256;2023-05-07T07:59:55;18.40;99.90
20325;DHT22;10320;49.482;11.256;2023-05-07T08:02:21;18.40;99.90
20325;DHT22;10320;49.482;11.256;2023-05-07T08:16:58;18.50;99.90
20325;DHT22;10320;49.482;11.256;2023-05-07T08:19:24;18.60;99.90
20325;DHT22;10320;49.482;11.256;2023-05-07T08:21:50;18.80;99.90
20325;DHT22;10320;49.482;11.256;2023-05-07T08:24:16;19.10;99.90
20325;DHT22;10320;49.482;11.256;2023-05-07T08:26:43;19.20;99.90
20325;DHT22;10320;49.482;11.256;2023-05-07T08:29:09;19.40;99.90
20325;DHT22;10320;49.482;11.256;2023-05-07T08:31:35;19.40;99.90
20325;DHT22;10320;49.482;11.256;2023-05-07T08:34:00;19.20;99.90
20325;DHT22;10320;49.482;11.256;2023-05-07T08:36:26;19.20;99.90
20325;DHT22;10320;49.482;11.256;2023-05-07T08:38:52;19.30;99.90
20325;DHT22;10320;49.482;11.256;2023-05-07T08:41:18;19.40;99.90
20325;DHT22;10320;49.482;11.256;2023-05-07T08:43:49;19.20;99.90
20325;DHT22;10320;49.482;11.256;2023-05-07T08:46:20;19.00;99.90
20325;DHT22;10320;49.482;11.256;2023-05-07T08:48:48;19.00;99.90
20325;DHT22;10320;49.482;11.256;2023-05-07T08:51:16;18.90;99.90
20325;DHT22;10320;49.482;11.256;2023-05-07T08:53:42;19.00;99.90
20325;DHT22;10320;49.482;11.256;2023-05-07T09:05:59;18.90;99.90
20325;DHT22;10320;49.482;11.256;2023-05-07T09:08:26;19.00;99.90
20325;DHT22;10320;49.482;11.256;2023-05-07T09:10:52;19.10;99.90
20325;DHT22;10320;49.482;11.256;2023-05-07T09:13:18;19.30;99.90
20325;DHT22;10320;49.482;11.256;2023-05-07T09:15:43;19.50;99.90
20325;DHT22;10320;49.482;11.256;2023-05-07T09:18:09;19.30;99.90
20325;DHT22;10320;49.482;11.256;2023-05-07T09:20:37;19.30;99.90
20325;DHT22;10320;49.482;11.256;2023-05-07T09:23:02;19.30;99.90
20325;DHT22;10320;49.482;11.256;2023-05-07T09:25:32;19.40;99.90
20325;DHT22;10320;49.482;11.256;2023-05-07T09:27:59;19.80;99.90
20325;DHT22;10320;49.482;11.256;2023-05-07T09:30:32;20.30;99.90
20325;DHT22;10320;49.482;11.256;2023-05-07T09:32:59;20.80;99.90
20325;DHT22;10320;49.482;11.256;2023-05-07T09:35:26;21.00;99.90
20325;DHT22;10320;49.482;11.256;2023-05-07T09:37:59;21.00;99.90
20325;DHT22;10320;49.482;11.256;2023-05-07T09:40:27;20.70;99.90
20325;DHT22;10320;49.482;11.256;2023-05-07T09:42:53;20.60;99.90
20325;DHT22;10320;49.482;11.256;2023-05-07T09:45:26;20.70;99.90
20325;DHT22;10320;49.482;11.256;2023-05-07T09:47:55;20.70;99.90
20325;DHT22;10320;49.482;11.256;2023-05-07T09:50:27;21.00;99.90
20325;DHT22;10320;49.482;11.256;2023-05-07T09:52:57;21.10;99.90
20325;DHT22;10320;49.482;11.256;2023-05-07T09:55:23;21.30;99.90
20325;DHT22;10320;49.482;11.256;2023-05-07T09:57:53;21.40;99.90
20325;DHT22;10320;49.482;11.256;2023-05-07T10:00:20;21.50;99.90
20325;DHT22;10320;49.482;11.256;2023-05-07T10:02:51;21.50;99.90
20325;DHT22;10320;49.482;11.256;2023-05-07T10:05:21;21.80;99.90
20325;DHT22;10320;49.482;11.256;2023-05-07T10:07:48;22.10;99.90
20325;DHT22;10320;49.482;11.256;2023-05-07T10:10:15;22.30;99.90
20325;DHT22;10320;49.482;11.256;2023-05-07T10:12:41;22.10;99.90
20325;DHT22;10320;49.482;11.256;2023-05-07T10:15:08;22.00;99.90
20325;DHT22;10320;49.482;11.256;2023-05-07T10:17:39;22.20;99.90
20325;DHT22;10320;49.482;11.256;2023-05-07T10:20:05;22.40;99.90
20325;DHT22;10320;49.482;11.256;2023-05-07T10:22:38;22.60;99.90
20325;DHT22;10320;49.482;11.256;2023-05-07T10:25:09;22.90;99.90
20325;DHT22;10320;49.482;11.256;2023-05-07T10:27:40;23.00;99.90
20325;DHT22;10320;49.482;11.256;2023-05-07T10:30:22;23.10;99.90
20325;DHT22;10320;49.482;11.256;2023-05-07T10:32:55;23.40;99.90
20325;DHT22;10320;49.482;11.256;2023-05-07T10:35:25;23.30;99.90
20325;DHT22;10320;49.482;11.256;2023-05-07T10:37:52;23.30;99.90
20325;DHT22;10320;49.482;11.256;2023-05-07T10:40:19;23.10;99.90
20325;DHT22;10320;49.482;11.256;2023-05-07T10:42:59;23.20;99.90
20325;DHT22;10320;49.482;11.256;2023-05-07T10:45:26;23.30;99.90
20325;DHT22;10320;49.482;11.256;2023-05-07T10:48:14;23.60;99.90
20325;DHT22;10320;49.482;11.256;2023-05-07T10:50:44;23.80;99.90
20325;DHT22;10320;49.482;11.256;2023-05-07T10:58:44;23.80;99.90
20325;DHT22;10320;49.482;11.256;2023-05-07T11:01:10;24.00;99.90
20325;DHT22;10320;49.482;11.256;2023-05-07T11:04:13;24.10;99.90
20325;DHT22;10320;49.482;11.256;2023-05-07T11:06:40;24.00;99.90
20325;DHT22;10320;49.482;11.256;2023-05-07T11:09:06;24.00;99.90
20325;DHT22;10320;49.482;11.256;2023-05-07T11:12:03;23.80;99.90
20325;DHT22;10320;49.482;11.256;2023-05-07T11:14:45;23.60;99.90
20325;DHT22;10320;49.482;11.256;2023-05-07T11:17:12;23.70;99.90
20325;DHT22;10320;49.482;11.256;2023-05-07T11:19:55;23.60;99.90
20325;DHT22;10320;49.482;11.256;2023-05-07T11:25:05;23.60;99.90
20325;DHT22;10320;49.482;11.256;2023-05-07T12:59:07;23.10;99.90
20325;DHT22;10320;49.482;11.256;2023-05-07T13:01:34;23.80;99.90
20325;DHT22;10320;49.482;11.256;2023-05-07T13:04:03;23.70;99.90
20325;DHT22;10320;49.482;11.256;2023-05-07T13:06:30;23.60;99.90
20325;DHT22;10320;49.482;11.256;2023-05-07T13:08:56;23.50;99.90
20325;DHT22;10320;49.482;11.256;2023-05-07T13:11:22;23.50;99.90
20325;DHT22;10320;49.482;11.256;2023-05-07T13:13:48;23.70;99.90
20325;DHT22;10320;49.482;11.256;2023-05-07T13:16:14;24.00;99.90
20325;DHT22;10320;49.482;11.256;2023-05-07T13:18:40;24.30;99.90
20325;DHT22;10320;49.482;11.256;2023-05-07T13:21:06;24.50;99.90
20325;DHT22;10320;49.482;11.256;2023-05-07T13:23:31;24.70;99.90
20325;DHT22;10320;49.482;11.256;2023-05-07T13:25:57;24.80;99.90
20325;DHT22;10320;49.482;11.256;2023-05-07T13:28:24;24.80;99.90
20325;DHT22;10320;49.482;11.256;2023-05-07T13:30:50;25.40;99.90
20325;DHT22;10320;49.482;11.256;2023-05-07T13:33:17;26.50;99.90
20325;DHT22;10320;49.482;11.256;2023-05-07T13:35:42;27.70;99.90
20325;DHT22;10320;49.482;11.256;2023-05-07T13:38:08;28.90;99.90
20325;DHT22;10320;49.482;11.256;2023-05-07T13:40:34;30.10;98.70
20325;DHT22;10320;49.482;11.256;2023-05-07T13:43:00;31.20;96.10
20325;DHT22;10320;49.482;11.256;2023-05-07T13:45:29;31.20;93.70
20325;DHT22;10320;49.482;11.256;2023-05-07T13:47:55;30.80;92.00
20325;DHT22;10320;49.482;11.256;2023-05-07T14:34:27;29.50;92.30
20325;DHT22;10320;49.482;11.256;2023-05-07T14:36:52;27.80;95.40
20325;DHT22;10320;49.482;11.256;2023-05-07T14:39:18;27.80;93.90
20325;DHT22;10320;49.482;11.256;2023-05-07T14:41:43;27.80;94.10
20325;DHT22;10320;49.482;11.256;2023-05-07T14:44:09;27.60;93.60
20325;DHT22;10320;49.482;11.256;2023-05-07T14:46:38;27.80;93.30
20325;DHT22;10320;49.482;11.256;2023-05-07T14:49:03;28.80;92.50
20325;DHT22;10320;49.482;11.256;2023-05-07T14:51:30;30.10;92.60
20325;DHT22;10320;49.482;11.256;2023-05-07T14:53:56;30.70;90.20
20325;DHT22;10320;49.482;11.256;2023-05-07T14:56:21;31.00;86.90
20325;DHT22;10320;49.482;11.256;2023-05-07T14:58:47;30.70;86.80
20325;DHT22;10320;49.482;11.256;2023-05-07T15:01:14;30.40;86.10
20325;DHT22;10320;49.482;11.256;2023-05-07T15:03:40;30.00;83.50
20325;DHT22;10320;49.482;11.256;2023-05-07T15:23:11;30.00;85.10
20325;DHT22;10320;49.482;11.256;2023-05-07T15:25:39;29.00;85.70
20325;DHT22;10320;49.482;11.256;2023-05-07T15:28:05;28.90;85.00
20325;DHT22;10320;49.482;11.256;2023-05-07T15:40:17;28.70;86.20
20325;DHT22;10320;49.482;11.256;2023-05-07T15:42:44;29.40;83.60
20325;DHT22;10320;49.482;11.256;2023-05-07T20:23:24;29.60;81.10
20325;DHT22;10320;49.482;11.256;2023-05-07T20:25:50;15.30;99.90
20325;DHT22;10320;49.482;11.256;2023-05-07T20:28:16;15.10;99.90
20325;DHT22;10320;49.482;11.256;2023-05-07T20:30:42;15.00;99.90
20325;DHT22;10320;49.482;11.256;2023-05-07T20:33:08;14.90;99.90
20325;DHT22;10320;49.482;11.256;2023-05-07T20:35:34;14.80;99.90
20325;DHT22;10320;49.482;11.256;2023-05-07T20:38:00;14.80;99.90
20325;DHT22;10320;49.482;11.256;2023-05-07T20:40:25;14.80;99.90
20325;DHT22;10320;49.482;11.256;2023-05-07T20:42:51;14.60;99.90
20325;DHT22;10320;49.482;11.256;2023-05-07T20:45:17;14.60;99.90
20325;DHT22;10320;49.482;11.256;2023-05-07T20:47:46;14.50;99.90
20325;DHT22;10320;49.482;11.256;2023-05-07T20:50:12;14.50;99.90
20325;DHT22;10320;49.482;11.256;2023-05-07T20:52:37;14.50;99.90
20325;DHT22;10320;49.482;11.256;2023-05-07T20:55:04;14.40;99.90
20325;DHT22;10320;49.482;11.256;2023-05-07T20:57:30;14.40;99.90
20325;DHT22;10320;49.482;11.256;2023-05-07T20:59:56;14.40;99.90
20325;DHT22;10320;49.482;11.256;2023-05-07T21:02:22;14.30;99.90
20325;DHT22;10320;49.482;11.256;2023-05-07T21:04:47;14.30;99.90
20325;DHT22;10320;49.482;11.256;2023-05-07T21:07:16;14.30;99.90
20325;DHT22;10320;49.482;11.256;2023-05-07T21:09:41;14.20;99.90
20325;DHT22;10320;49.482;11.256;2023-05-07T21:12:07;14.20;99.90
20325;DHT22;10320;49.482;11.256;2023-05-07T21:14:56;14.10;99.90
20325;DHT22;10320;49.482;11.256;2023-05-07T21:17:35;14.10;99.90
20325;DHT22;10320;49.482;11.256;2023-05-07T21:20:00;14.00;99.90
20325;DHT22;10320;49.482;11.256;2023-05-07T21:22:28;14.00;99.90
20325;DHT22;10320;49.482;11.256;2023-05-07T21:24:54;13.90;99.90
20325;DHT22;10320;49.482;11.256;2023-05-07T21:27:19;13.90;99.90
20325;DHT22;10320;49.482;11.256;2023-05-07T21:29:45;13.80;99.90
20325;DHT22;10320;49.482;11.256;2023-05-07T21:32:11;13.80;99.90
20325;DHT22;10320;49.482;11.256;2023-05-07T21:34:36;13.70;99.90
20325;DHT22;10320;49.482;11.256;2023-05-07T21:37:02;13.70;99.90
20325;DHT22;10320;49.482;11.256;2023-05-07T21:39:28;13.60;99.90
20325;DHT22;10320;49.482;11.256;2023-05-07T21:41:53;13.60;99.90
20325;DHT22;10320;49.482;11.256;2023-05-07T21:44:19;13.60;99.90
20325;DHT22;10320;49.482;11.256;2023-05-07T21:46:45;13.60;99.90
20325;DHT22;10320;49.482;11.256;2023-05-07T21:49:10;13.50;99.90
20325;DHT22;10320;49.482;11.256;2023-05-07T21:51:36;13.50;99.90
20325;DHT22;10320;49.482;11.256;2023-05-07T21:54:02;13.50;99.90
20325;DHT22;10320;49.482;11.256;2023-05-07T21:56:28;13.50;99.90
20325;DHT22;10320;49.482;11.256;2023-05-07T21:58:56;13.40;99.90
20325;DHT22;10320;49.482;11.256;2023-05-07T22:01:22;13.30;99.90
20325;DHT22;10320;49.482;11.256;2023-05-07T22:03:47;13.30;99.90
20325;DHT22;10320;49.482;11.256;2023-05-07T22:06:13;13.30;99.90
20325;DHT22;10320;49.482;11.256;2023-05-07T22:08:41;13.20;99.90
20325;DHT22;10320;49.482;11.256;2023-05-07T22:11:07;13.20;99.90
20325;DHT22;10320;49.482;11.256;2023-05-07T22:13:33;13.20;99.90
20325;DHT22;10320;49.482;11.256;2023-05-07T22:15:58;13.20;99.90
20325;DHT22;10320;49.482;11.256;2023-05-07T22:18:24;13.10;99.90
20325;DHT22;10320;49.482;11.256;2023-05-07T22:20:51;13.10;99.90
20325;DHT22;10320;49.482;11.256;2023-05-07T22:23:16;13.00;99.90
20325;DHT22;10320;49.482;11.256;2023-05-07T22:25:42;13.00;99.90
20325;DHT22;10320;49.482;11.256;2023-05-07T22:28:07;13.00;99.90
20325;DHT22;10320;49.482;11.256;2023-05-07T22:30:33;13.00;99.90
20325;DHT22;10320;49.482;11.256;2023-05-07T22:32:59;13.00;99.90
20325;DHT22;10320;49.482;11.256;2023-05-07T22:35:24;13.00;99.90
20325;DHT22;10320;49.482;11.256;2023-05-07T22:37:50;13.00;99.90
20325;DHT22;10320;49.482;11.256;2023-05-07T22:40:16;13.00;99.90
20325;DHT22;10320;49.482;11.256;2023-05-07T22:42:41;13.00;99.90
20325;DHT22;10320;49.482;11.256;2023-05-07T22:45:08;12.90;99.90
20325;DHT22;10320;49.482;11.256;2023-05-07T22:47:34;12.80;99.90
20325;DHT22;10320;49.482;11.256;2023-05-07T22:50:00;12.80;99.90
20325;DHT22;10320;49.482;11.256;2023-05-07T22:52:26;12.70;99.90
20325;DHT22;10320;49.482;11.256;2023-05-07T22:54:51;12.70;99.90
20325;DHT22;10320;49.482;11.256;2023-05-07T22:57:17;12.70;99.90
20325;DHT22;10320;49.482;11.256;2023-05-07T22:59:42;12.60;99.90
20325;DHT22;10320;49.482;11.256;2023-05-07T23:02:08;12.60;99.90
20325;DHT22;10320;49.482;11.256;2023-05-07T23:04:34;12.60;99.90
20325;DHT22;10320;49.482;11.256;2023-05-07T23:06:59;12.60;99.90
20325;DHT22;10320;49.482;11.256;2023-05-07T23:09:28;12.50;99.90
20325;DHT22;10320;49.482;11.256;2023-05-07T23:11:54;12.50;99.90
20325;DHT22;10320;49.482;11.256;2023-05-07T23:14:19;12.40;99.90
20325;DHT22;10320;49.482;11.256;2023-05-07T23:16:45;12.40;99.90
20325;DHT22;10320;49.482;11.256;2023-05-07T23:19:10;12.30;99.90
20325;DHT22;10320;49.482;11.256;2023-05-07T23:21:36;12.30;99.90
20325;DHT22;10320;49.482;11.256;2023-05-07T23:24:02;12.30;99.90
20325;DHT22;10320;49.482;11.256;2023-05-07T23:26:27;12.20;99.90
20325;DHT22;10320;49.482;11.256;2023-05-07T23:28:53;12.20;99.90
20325;DHT22;10320;49.482;11.256;2023-05-07T23:31:19;12.10;99.90
20325;DHT22;10320;49.482;11.256;2023-05-07T23:33:44;12.10;99.90
20325;DHT22;10320;49.482;11.256;2023-05-07T23:36:10;12.10;99.90
20325;DHT22;10320;49.482;11.256;2023-05-07T23:38:35;12.00;99.90
20325;DHT22;10320;49.482;11.256;2023-05-07T23:41:01;11.90;99.90
20325;DHT22;10320;49.482;11.256;2023-05-07T23:43:27;11.90;99.90
20325;DHT22;10320;49.482;11.256;2023-05-07T23:45:52;11.80;99.90
20325;DHT22;10320;49.482;11.256;2023-05-07T23:48:18;11.80;99.90
20325;DHT22;10320;49.482;11.256;2023-05-07T23:50:44;11.80;99.90
20325;DHT22;10320;49.482;11.256;2023-05-07T23:53:09;11.70;99.90
20325;DHT22;10320;49.482;11.256;2023-05-07T23:55:35;11.70;99.90
20325;DHT22;10320;49.482;11.256;2023-05-07T23:58:02;11.60;99.90
